sensor_id;sensor_type;location;lat;lon;timestamp;pressure;altitude;pressure_sealevel;temperature;humidity
18784;BME280;9520;50.954;6.968;2023-04-10T00:00:25;101637.13;;;16.61;36.07
18784;BME280;9520;50.954;6.968;2023-04-10T00:00:47;101637.03;;;16.64;36.23
18784;BME280;9520;50.954;6.968;2023-04-10T00:01:10;101648.47;;;16.69;36.26
18784;BME280;9520;50.954;6.968;2023-04-10T00:01:31;101652.88;;;16.70;35.74
18784;BME280;9520;50.954;6.968;2023-04-10T00:01:56;101651.09;;;16.71;35.92
18784;BME280;9520;50.954;6.968;2023-04-10T00:02:18;101641.22;;;16.74;35.85
18784;BME280;9520;50.954;6.968;2023-04-10T00:02:40;101644.81;;;16.73;35.73
18784;BME280;9520;50.954;6.968;2023-04-10T00:03:03;101641.16;;;16.77;35.98
18784;BME280;9520;50.954;6.968;2023-04-10T00:03:25;101643.81;;;16.77;36.19
18784;BME280;9520;50.954;6.968;2023-04-10T00:03:48;101637.66;;;16.75;36.15
18784;BME280;9520;50.954;6.968;2023-04-10T00:04:10;101643.91;;;16.74;36.04
18784;BME280;9520;50.954;6.968;2023-04-10T00:04:32;101641.22;;;16.76;35.41
18784;BME280;9520;50.954;6.968;2023-04-10T00:04:54;101646.56;;;16.74;35.67
18784;BME280;9520;50.954;6.968;2023-04-10T00:05:16;101647.44;;;16.75;35.52
18784;BME280;9520;50.954;6.968;2023-04-10T00:05:38;101642.34;;;16.66;35.83
18784;BME280;9520;50.954;6.968;2023-04-10T00:06:00;101639.56;;;16.70;35.68
18784;BME280;9520;50.954;6.968;2023-04-10T00:06:22;101645.78;;;16.71;35.21
18784;BME280;9520;50.954;6.968;2023-04-10T00:06:44;101643.03;;;16.74;35.42
18784;BME280;9520;50.954;6.968;2023-04-10T00:07:05;101651.00;;;16.74;35.45
18784;BME280;9520;50.954;6.968;2023-04-10T00:07:28;101641.25;;;16.73;35.47
18784;BME280;9520;50.954;6.968;2023-04-10T00:07:50;101638.69;;;16.70;35.32
18784;BME280;9520;50.954;6.968;2023-04-10T00:08:12;101642.13;;;16.73;35.13
18784;BME280;9520;50.954;6.968;2023-04-10T00:08:34;101645.69;;;16.74;35.37
18784;BME280;9520;50.954;6.968;2023-04-10T00:08:56;101643.28;;;16.63;35.36
18784;BME280;9520;50.954;6.968;2023-04-10T00:09:18;101624.03;;;16.51;35.66
18784;BME280;9520;50.954;6.968;2023-04-10T00:09:39;101645.00;;;16.66;35.60
18784;BME280;9520;50.954;6.968;2023-04-10T00:10:02;101633.50;;;16.64;35.48
18784;BME280;9520;50.954;6.968;2023-04-10T00:10:24;101640.50;;;16.68;35.37
18784;BME280;9520;50.954;6.968;2023-04-10T00:10:47;101640.47;;;16.69;35.67
18784;BME280;9520;50.954;6.968;2023-04-10T00:11:08;101635.28;;;16.63;35.79
18784;BME280;9520;50.954;6.968;2023-04-10T00:11:30;101640.50;;;16.68;35.49
18784;BME280;9520;50.954;6.968;2023-04-10T00:11:53;101642.25;;;16.69;35.59
18784;BME280;9520;50.954;6.968;2023-04-10T00:12:15;101645.03;;;16.64;35.19
18784;BME280;9520;50.954;6.968;2023-04-10T00:12:36;101641.56;;;16.62;35.30
18784;BME280;9520;50.954;6.968;2023-04-10T00:12:58;101641.50;;;16.64;35.37
18784;BME280;9520;50.954;6.968;2023-04-10T00:13:21;101635.41;;;16.59;35.39
18784;BME280;9520;50.954;6.968;2023-04-10T00:13:44;101619.63;;;16.50;35.64
18784;BME280;9520;50.954;6.968;2023-04-10T00:14:05;101643.38;;;16.60;35.41
18784;BME280;9520;50.954;6.968;2023-04-10T00:14:28;101640.75;;;16.57;35.66
18784;BME280;9520;50.954;6.968;2023-04-10T00:14:50;101640.94;;;16.50;35.54
18784;BME280;9520;50.954;6.968;2023-04-10T00:15:13;101639.13;;;16.52;35.65
18784;BME280;9520;50.954;6.968;2023-04-10T00:15:34;101643.56;;;16.51;35.72
18784;BME280;9520;50.954;6.968;2023-04-10T00:15:56;101628.47;;;16.52;35.81
18784;BME280;9520;50.954;6.968;2023-04-10T00:16:18;101633.78;;;16.52;36.13
18784;BME280;9520;50.954;6.968;2023-04-10T00:16:41;101632.81;;;16.54;36.27
18784;BME280;9520;50.954;6.968;2023-04-10T00:17:03;101635.53;;;16.53;36.07
18784;BME280;9520;50.954;6.968;2023-04-10T00:17:24;101631.13;;;16.52;35.97
18784;BME280;9520;50.954;6.968;2023-04-10T00:17:46;101633.69;;;16.55;35.65
18784;BME280;9520;50.954;6.968;2023-04-10T00:18:08;101633.63;;;16.58;35.89
18784;BME280;9520;50.954;6.968;2023-04-10T00:18:30;101633.69;;;16.56;36.00
18784;BME280;9520;50.954;6.968;2023-04-10T00:18:52;101630.06;;;16.59;36.38
18784;BME280;9520;50.954;6.968;2023-04-10T00:19:14;101619.63;;;16.50;36.04
18784;BME280;9520;50.954;6.968;2023-04-10T00:19:36;101630.06;;;16.59;36.05
18784;BME280;9520;50.954;6.968;2023-04-10T00:19:57;101627.44;;;16.57;35.66
18784;BME280;9520;50.954;6.968;2023-04-10T00:20:20;101632.75;;;16.59;35.66
18784;BME280;9520;50.954;6.968;2023-04-10T00:20:42;101629.19;;;16.58;35.41
18784;BME280;9520;50.954;6.968;2023-04-10T00:21:04;101628.28;;;16.58;35.57
18784;BME280;9520;50.954;6.968;2023-04-10T00:21:27;101622.13;;;16.56;35.58
18784;BME280;9520;50.954;6.968;2023-04-10T00:21:49;101629.25;;;16.55;35.53
18784;BME280;9520;50.954;6.968;2023-04-10T00:22:10;101628.38;;;16.55;35.75
18784;BME280;9520;50.954;6.968;2023-04-10T00:22:32;101629.22;;;16.57;35.68
18784;BME280;9520;50.954;6.968;2023-04-10T00:22:54;101630.09;;;16.57;35.93
18784;BME280;9520;50.954;6.968;2023-04-10T00:23:16;101629.16;;;16.61;36.16
18784;BME280;9520;50.954;6.968;2023-04-10T00:23:38;101616.84;;;16.54;35.96
18784;BME280;9520;50.954;6.968;2023-04-10T00:24:00;101632.75;;;16.59;35.85
18784;BME280;9520;50.954;6.968;2023-04-10T00:24:21;101634.53;;;16.58;35.84
18784;BME280;9520;50.954;6.968;2023-04-10T00:24:44;101633.59;;;16.61;35.83
18784;BME280;9520;50.954;6.968;2023-04-10T00:25:07;101626.50;;;16.60;35.77
18784;BME280;9520;50.954;6.968;2023-04-10T00:25:28;101630.97;;;16.59;35.97
18784;BME280;9520;50.954;6.968;2023-04-10T00:25:50;101627.38;;;16.60;35.91
18784;BME280;9520;50.954;6.968;2023-04-10T00:26:14;101628.28;;;16.58;35.64
18784;BME280;9520;50.954;6.968;2023-04-10T00:26:37;101615.16;;;16.52;35.62
18784;BME280;9520;50.954;6.968;2023-04-10T00:26:58;101625.72;;;16.55;35.82
18784;BME280;9520;50.954;6.968;2023-04-10T00:27:22;101630.22;;;16.53;35.64
18784;BME280;9520;50.954;6.968;2023-04-10T00:27:44;101622.22;;;16.53;35.66
18784;BME280;9520;50.954;6.968;2023-04-10T00:28:06;101621.47;;;16.48;35.75
18784;BME280;9520;50.954;6.968;2023-04-10T00:28:28;101613.53;;;16.45;35.58
18784;BME280;9520;50.954;6.968;2023-04-10T00:28:50;101624.13;;;16.48;35.64
18784;BME280;9520;50.954;6.968;2023-04-10T00:29:12;101595.25;;;16.29;35.87
18784;BME280;9520;50.954;6.968;2023-04-10T00:29:35;101605.78;;;16.34;35.74
18784;BME280;9520;50.954;6.968;2023-04-10T00:29:57;101620.63;;;16.44;35.80
18784;BME280;9520;50.954;6.968;2023-04-10T00:30:19;101616.16;;;16.46;35.99
18784;BME280;9520;50.954;6.968;2023-04-10T00:30:42;101625.97;;;16.44;36.27
18784;BME280;9520;50.954;6.968;2023-04-10T00:31:04;101604.91;;;16.33;36.44
18784;BME280;9520;50.954;6.968;2023-04-10T00:31:26;101618.88;;;16.43;35.94
18784;BME280;9520;50.954;6.968;2023-04-10T00:31:48;101620.63;;;16.44;36.14
18784;BME280;9520;50.954;6.968;2023-04-10T00:32:10;101618.06;;;16.41;35.95
18784;BME280;9520;50.954;6.968;2023-04-10T00:32:32;101616.28;;;16.41;35.70
18784;BME280;9520;50.954;6.968;2023-04-10T00:32:54;101613.56;;;16.43;35.88
18784;BME280;9520;50.954;6.968;2023-04-10T00:33:16;101612.84;;;16.36;35.98
18784;BME280;9520;50.954;6.968;2023-04-10T00:33:39;101617.94;;;16.46;35.97
18784;BME280;9520;50.954;6.968;2023-04-10T00:34:00;101610.06;;;16.41;36.52
18784;BME280;9520;50.954;6.968;2023-04-10T00:34:22;101617.94;;;16.47;36.62
18784;BME280;9520;50.954;6.968;2023-04-10T00:34:44;101622.31;;;16.48;36.38
18784;BME280;9520;50.954;6.968;2023-04-10T00:35:07;101618.72;;;16.51;36.62
18784;BME280;9520;50.954;6.968;2023-04-10T00:35:30;101619.56;;;16.53;36.40
18784;BME280;9520;50.954;6.968;2023-04-10T00:35:51;101622.25;;;16.51;36.18
18784;BME280;9520;50.954;6.968;2023-04-10T00:36:13;101595.13;;;16.35;35.94
18784;BME280;9520;50.954;6.968;2023-04-10T00:36:35;101616.16;;;16.46;35.89
18784;BME280;9520;50.954;6.968;2023-04-10T00:36:57;101618.84;;;16.45;35.81
18784;BME280;9520;50.954;6.968;2023-04-10T00:37:19;101622.47;;;16.42;35.92
18784;BME280;9520;50.954;6.968;2023-04-10T00:38:33;101614.44;;;16.43;36.06
18784;BME280;9520;50.954;6.968;2023-04-10T00:38:55;101622.41;;;16.43;36.14
18784;BME280;9520;50.954;6.968;2023-04-10T00:39:18;101618.06;;;16.41;36.13
18784;BME280;9520;50.954;6.968;2023-04-10T00:39:39;101619.84;;;16.40;36.14
18784;BME280;9520;50.954;6.968;2023-04-10T00:40:02;101613.72;;;16.37;36.30
18784;BME280;9520;50.954;6.968;2023-04-10T00:40:24;101620.84;;;16.36;36.08
18784;BME280;9520;50.954;6.968;2023-04-10T00:40:46;101619.97;;;16.36;36.40
18784;BME280;9520;50.954;6.968;2023-04-10T00:41:09;101615.53;;;16.35;36.25
18784;BME280;9520;50.954;6.968;2023-04-10T00:41:31;101610.22;;;16.35;36.33
18784;BME280;9520;50.954;6.968;2023-04-10T00:41:53;101614.66;;;16.34;36.17
18784;BME280;9520;50.954;6.968;2023-04-10T00:42:14;101617.31;;;16.36;36.03
18784;BME280;9520;50.954;6.968;2023-04-10T00:42:37;101613.72;;;16.37;36.23
18784;BME280;9520;50.954;6.968;2023-04-10T00:43:00;101616.41;;;16.35;36.25
18784;BME280;9520;50.954;6.968;2023-04-10T00:43:22;101610.19;;;16.36;36.04
18784;BME280;9520;50.954;6.968;2023-04-10T00:43:44;101619.16;;;16.32;36.17
18784;BME280;9520;50.954;6.968;2023-04-10T00:44:06;101617.38;;;16.33;36.03
18784;BME280;9520;50.954;6.968;2023-04-10T00:44:29;101612.91;;;16.33;36.07
18784;BME280;9520;50.954;6.968;2023-04-10T00:44:52;101604.25;;;16.25;36.03
18784;BME280;9520;50.954;6.968;2023-04-10T00:45:14;101608.81;;;16.19;36.25
18784;BME280;9520;50.954;6.968;2023-04-10T00:45:36;101610.56;;;16.20;36.14
18784;BME280;9520;50.954;6.968;2023-04-10T00:46:00;101609.00;;;16.11;36.27
18784;BME280;9520;50.954;6.968;2023-04-10T00:46:22;101615.44;;;16.03;36.40
18784;BME280;9520;50.954;6.968;2023-04-10T00:46:46;101612.66;;;16.07;36.25
18784;BME280;9520;50.954;6.968;2023-04-10T00:47:11;101612.59;;;16.09;36.24
18784;BME280;9520;50.954;6.968;2023-04-10T00:47:36;101601.09;;;16.08;36.48
18784;BME280;9520;50.954;6.968;2023-04-10T00:47:58;101601.09;;;16.08;36.23
18784;BME280;9520;50.954;6.968;2023-04-10T00:48:20;101610.72;;;16.14;36.28
18784;BME280;9520;50.954;6.968;2023-04-10T00:48:42;101592.50;;;15.95;36.47
18784;BME280;9520;50.954;6.968;2023-04-10T00:49:05;101602.84;;;16.09;36.32
18784;BME280;9520;50.954;6.968;2023-04-10T00:49:27;101612.00;;;15.96;36.44
18784;BME280;9520;50.954;6.968;2023-04-10T00:49:51;101610.13;;;16.01;36.51
18784;BME280;9520;50.954;6.968;2023-04-10T00:50:13;101606.50;;;16.04;36.37
18784;BME280;9520;50.954;6.968;2023-04-10T00:50:36;101607.34;;;16.07;36.70
18784;BME280;9520;50.954;6.968;2023-04-10T00:50:58;101608.13;;;16.11;36.45
18784;BME280;9520;50.954;6.968;2023-04-10T00:51:20;101603.69;;;16.11;36.54
18784;BME280;9520;50.954;6.968;2023-04-10T00:51:43;101606.34;;;16.11;36.34
18784;BME280;9520;50.954;6.968;2023-04-10T00:52:05;101589.59;;;16.08;36.33
18784;BME280;9520;50.954;6.968;2023-04-10T00:52:27;101605.38;;;16.15;36.45
18784;BME280;9520;50.954;6.968;2023-04-10T00:52:49;101599.25;;;16.10;36.36
18784;BME280;9520;50.954;6.968;2023-04-10T00:53:12;101600.94;;;16.14;36.43
18784;BME280;9520;50.954;6.968;2023-04-10T00:53:33;101599.09;;;16.18;36.42
18784;BME280;9520;50.954;6.968;2023-04-10T00:53:56;101599.13;;;16.16;36.24
18784;BME280;9520;50.954;6.968;2023-04-10T00:54:20;101603.56;;;16.16;36.46
18784;BME280;9520;50.954;6.968;2023-04-10T00:54:43;101601.78;;;16.16;36.38
18784;BME280;9520;50.954;6.968;2023-04-10T00:55:05;101607.13;;;16.16;36.34
18784;BME280;9520;50.954;6.968;2023-04-10T00:55:29;101572.88;;;16.01;36.51
18784;BME280;9520;50.954;6.968;2023-04-10T00:55:51;101596.59;;;16.12;36.24
18784;BME280;9520;50.954;6.968;2023-04-10T00:56:13;101601.91;;;16.12;36.43
18784;BME280;9520;50.954;6.968;2023-04-10T00:56:36;101593.94;;;16.10;36.14
18784;BME280;9520;50.954;6.968;2023-04-10T00:56:58;101600.16;;;16.09;36.42
18784;BME280;9520;50.954;6.968;2023-04-10T00:57:20;101600.41;;;15.98;36.39
18784;BME280;9520;50.954;6.968;2023-04-10T00:57:43;101605.72;;;16.00;36.30
18784;BME280;9520;50.954;6.968;2023-04-10T00:58:06;101605.78;;;15.97;36.50
18784;BME280;9520;50.954;6.968;2023-04-10T00:58:28;101598.63;;;15.99;36.59
18784;BME280;9520;50.954;6.968;2023-04-10T00:58:50;101601.28;;;15.99;36.57
18784;BME280;9520;50.954;6.968;2023-04-10T00:59:13;101600.47;;;15.97;36.60
18784;BME280;9520;50.954;6.968;2023-04-10T00:59:34;101607.53;;;15.98;36.59
18784;BME280;9520;50.954;6.968;2023-04-10T00:59:57;101602.34;;;15.93;36.66
18784;BME280;9520;50.954;6.968;2023-04-10T01:00:21;101603.16;;;15.95;36.96
18784;BME280;9520;50.954;6.968;2023-04-10T01:00:45;101593.31;;;15.99;36.67
18784;BME280;9520;50.954;6.968;2023-04-10T01:01:07;101605.69;;;16.02;36.75
18784;BME280;9520;50.954;6.968;2023-04-10T01:01:29;101598.59;;;16.01;36.46
18784;BME280;9520;50.954;6.968;2023-04-10T01:01:51;101597.75;;;15.98;36.34
18784;BME280;9520;50.954;6.968;2023-04-10T01:02:14;101592.41;;;16.00;36.44
18784;BME280;9520;50.954;6.968;2023-04-10T01:02:37;101601.28;;;15.99;36.30
18784;BME280;9520;50.954;6.968;2023-04-10T01:02:58;101588.91;;;15.98;36.38
18784;BME280;9520;50.954;6.968;2023-04-10T01:03:22;101597.97;;;15.89;36.65
18784;BME280;9520;50.954;6.968;2023-04-10T01:03:46;101592.81;;;15.82;36.71
18784;BME280;9520;50.954;6.968;2023-04-10T01:04:08;101601.63;;;15.84;36.71
18784;BME280;9520;50.954;6.968;2023-04-10T01:04:31;101601.69;;;15.82;36.61
18784;BME280;9520;50.954;6.968;2023-04-10T01:04:53;101598.19;;;15.79;36.64
18784;BME280;9520;50.954;6.968;2023-04-10T01:05:17;101595.53;;;15.79;36.72
18784;BME280;9520;50.954;6.968;2023-04-10T01:05:43;101601.63;;;15.84;36.40
18784;BME280;9520;50.954;6.968;2023-04-10T01:06:15;101605.16;;;15.86;36.50
18784;BME280;9520;50.954;6.968;2023-04-10T01:06:49;101606.81;;;15.90;36.43
18784;BME280;9520;50.954;6.968;2023-04-10T01:07:20;101608.59;;;15.89;36.63
18784;BME280;9520;50.954;6.968;2023-04-10T01:07:56;101603.34;;;15.88;36.58
18784;BME280;9520;50.954;6.968;2023-04-10T01:08:25;101600.69;;;15.88;36.68
18784;BME280;9520;50.954;6.968;2023-04-10T01:08:58;101601.50;;;15.90;36.63
18784;BME280;9520;50.954;6.968;2023-04-10T01:09:31;101605.28;;;15.80;36.73
18784;BME280;9520;50.954;6.968;2023-04-10T01:10:01;101576.19;;;15.72;36.88
18784;BME280;9520;50.954;6.968;2023-04-10T01:10:32;101587.41;;;15.85;36.88
18784;BME280;9520;50.954;6.968;2023-04-10T01:11:00;101599.75;;;15.89;36.59
18784;BME280;9520;50.954;6.968;2023-04-10T01:11:31;101594.50;;;15.86;36.45
18784;BME280;9520;50.954;6.968;2023-04-10T01:12:06;101596.19;;;15.90;36.53
18784;BME280;9520;50.954;6.968;2023-04-10T01:12:45;101592.88;;;15.79;36.77
18784;BME280;9520;50.954;6.968;2023-04-10T01:13:15;101599.03;;;15.82;36.50
18784;BME280;9520;50.954;6.968;2023-04-10T01:13:42;101586.81;;;15.74;36.65
18784;BME280;9520;50.954;6.968;2023-04-10T01:14:18;101590.22;;;15.79;36.75
18784;BME280;9520;50.954;6.968;2023-04-10T01:14:48;101588.38;;;15.82;36.60
18784;BME280;9520;50.954;6.968;2023-04-10T01:15:17;101580.56;;;15.75;36.52
18784;BME280;9520;50.954;6.968;2023-04-10T01:15:45;101580.34;;;15.84;36.57
18784;BME280;9520;50.954;6.968;2023-04-10T01:16:13;101591.00;;;15.84;36.86
18784;BME280;9520;50.954;6.968;2023-04-10T01:16:45;101574.25;;;15.79;36.75
18784;BME280;9520;50.954;6.968;2023-04-10T01:17:12;101589.25;;;15.83;36.58
18784;BME280;9520;50.954;6.968;2023-04-10T01:17:42;101582.19;;;15.82;36.91
18784;BME280;9520;50.954;6.968;2023-04-10T01:18:10;101589.31;;;15.80;36.87
18784;BME280;9520;50.954;6.968;2023-04-10T01:18:40;101557.69;;;15.68;36.59
18784;BME280;9520;50.954;6.968;2023-04-10T01:19:11;101585.66;;;15.84;36.47
18784;BME280;9520;50.954;6.968;2023-04-10T01:19:56;101585.88;;;15.75;36.78
18784;BME280;9520;50.954;6.968;2023-04-10T01:20:22;101584.88;;;15.79;36.74
18784;BME280;9520;50.954;6.968;2023-04-10T01:20:46;101595.53;;;15.79;36.68
18784;BME280;9520;50.954;6.968;2023-04-10T01:21:10;101589.28;;;15.81;36.89
18784;BME280;9520;50.954;6.968;2023-04-10T01:21:34;101588.41;;;15.81;36.98
18784;BME280;9520;50.954;6.968;2023-04-10T01:21:57;101543.75;;;15.55;36.90
18784;BME280;9520;50.954;6.968;2023-04-10T01:22:22;101585.66;;;15.84;36.98
18784;BME280;9520;50.954;6.968;2023-04-10T01:23:05;101590.03;;;15.88;37.01
18784;BME280;9520;50.954;6.968;2023-04-10T01:23:48;101585.53;;;15.90;37.23
18784;BME280;9520;50.954;6.968;2023-04-10T01:24:32;101581.31;;;15.81;36.74
18784;BME280;9520;50.954;6.968;2023-04-10T01:25:08;101580.56;;;15.75;36.72
18784;BME280;9520;50.954;6.968;2023-04-10T01:25:40;101585.94;;;15.72;36.84
18784;BME280;9520;50.954;6.968;2023-04-10T01:26:05;101582.41;;;15.71;36.84
18784;BME280;9520;50.954;6.968;2023-04-10T01:26:41;101563.88;;;15.68;36.73
18784;BME280;9520;50.954;6.968;2023-04-10T01:27:11;101574.44;;;15.71;36.98
18784;BME280;9520;50.954;6.968;2023-04-10T01:27:39;101578.88;;;15.71;36.97
18784;BME280;9520;50.954;6.968;2023-04-10T01:28:17;101571.75;;;15.73;36.98
18784;BME280;9520;50.954;6.968;2023-04-10T01:28:51;101571.66;;;15.77;36.90
18784;BME280;9520;50.954;6.968;2023-04-10T01:29:16;101566.47;;;15.70;36.79
18784;BME280;9520;50.954;6.968;2023-04-10T01:29:42;101569.91;;;15.75;36.84
18784;BME280;9520;50.954;6.968;2023-04-10T01:30:09;101559.25;;;15.76;36.83
18784;BME280;9520;50.954;6.968;2023-04-10T01:30:34;101567.25;;;15.75;36.82
18784;BME280;9520;50.954;6.968;2023-04-10T01:30:58;101562.03;;;15.70;36.92
18784;BME280;9520;50.954;6.968;2023-04-10T01:31:27;101559.34;;;15.72;36.82
18784;BME280;9520;50.954;6.968;2023-04-10T01:31:52;101552.28;;;15.71;36.99
18784;BME280;9520;50.954;6.968;2023-04-10T01:32:19;101555.84;;;15.70;36.86
18784;BME280;9520;50.954;6.968;2023-04-10T01:32:42;101558.56;;;15.67;36.98
18784;BME280;9520;50.954;6.968;2023-04-10T01:33:10;101561.25;;;15.65;37.12
18784;BME280;9520;50.954;6.968;2023-04-10T01:33:40;101553.41;;;15.59;37.10
18784;BME280;9520;50.954;6.968;2023-04-10T01:34:09;101558.72;;;15.59;37.17
18784;BME280;9520;50.954;6.968;2023-04-10T01:34:34;101559.72;;;15.55;37.18
18784;BME280;9520;50.954;6.968;2023-04-10T01:34:59;101554.38;;;15.57;37.41
18784;BME280;9520;50.954;6.968;2023-04-10T01:35:27;101543.72;;;15.57;37.56
18784;BME280;9520;50.954;6.968;2023-04-10T01:35:52;101548.91;;;15.63;37.76
18784;BME280;9520;50.954;6.968;2023-04-10T01:36:21;101549.81;;;15.63;37.67
18784;BME280;9520;50.954;6.968;2023-04-10T01:36:48;101549.84;;;15.60;37.43
18784;BME280;9520;50.954;6.968;2023-04-10T01:37:15;101538.38;;;15.58;37.32
18784;BME280;9520;50.954;6.968;2023-04-10T01:37:39;101548.91;;;15.63;37.30
18784;BME280;9520;50.954;6.968;2023-04-10T01:38:05;101551.50;;;15.66;37.27
18784;BME280;9520;50.954;6.968;2023-04-10T01:38:28;101551.50;;;15.66;37.45
18784;BME280;9520;50.954;6.968;2023-04-10T01:38:52;101541.88;;;15.60;37.66
18784;BME280;9520;50.954;6.968;2023-04-10T01:39:17;101533.00;;;15.61;37.63
18784;BME280;9520;50.954;6.968;2023-04-10T01:39:41;101548.78;;;15.69;37.76
18784;BME280;9520;50.954;6.968;2023-04-10T01:40:08;101545.19;;;15.70;37.21
18784;BME280;9520;50.954;6.968;2023-04-10T01:40:31;101541.72;;;15.68;37.17
18784;BME280;9520;50.954;6.968;2023-04-10T01:40:57;101551.59;;;15.63;37.23
18784;BME280;9520;50.954;6.968;2023-04-10T01:41:23;101550.75;;;15.59;37.18
18784;BME280;9520;50.954;6.968;2023-04-10T01:41:50;101556.03;;;15.61;37.19
18784;BME280;9520;50.954;6.968;2023-04-10T01:42:15;101552.50;;;15.60;37.31
18784;BME280;9520;50.954;6.968;2023-04-10T01:42:42;101553.41;;;15.59;37.25
18784;BME280;9520;50.954;6.968;2023-04-10T01:43:07;101549.91;;;15.59;37.24
18784;BME280;9520;50.954;6.968;2023-04-10T01:43:39;101550.81;;;15.58;37.29
18784;BME280;9520;50.954;6.968;2023-04-10T01:44:05;101549.94;;;15.57;37.14
18784;BME280;9520;50.954;6.968;2023-04-10T01:44:29;101554.28;;;15.60;37.20
18784;BME280;9520;50.954;6.968;2023-04-10T01:44:53;101560.53;;;15.59;37.13
18784;BME280;9520;50.954;6.968;2023-04-10T01:45:17;101553.50;;;15.56;37.19
18784;BME280;9520;50.954;6.968;2023-04-10T01:45:44;101559.72;;;15.55;37.21
18784;BME280;9520;50.954;6.968;2023-04-10T01:46:07;101550.28;;;15.39;37.25
18784;BME280;9520;50.954;6.968;2023-04-10T01:46:30;101549.34;;;15.41;37.41
18784;BME280;9520;50.954;6.968;2023-04-10T01:46:54;101548.47;;;15.41;37.34
18784;BME280;9520;50.954;6.968;2023-04-10T01:47:17;101543.25;;;15.36;37.33
18784;BME280;9520;50.954;6.968;2023-04-10T01:47:41;101547.59;;;15.40;37.39
18784;BME280;9520;50.954;6.968;2023-04-10T01:48:03;101556.41;;;15.42;37.31
18784;BME280;9520;50.954;6.968;2023-04-10T01:48:26;101556.44;;;15.41;37.22
18784;BME280;9520;50.954;6.968;2023-04-10T01:48:48;101552.09;;;15.37;37.50
18784;BME280;9520;50.954;6.968;2023-04-10T01:49:13;101556.44;;;15.41;37.64
18784;BME280;9520;50.954;6.968;2023-04-10T01:49:37;101556.41;;;15.42;37.63
18784;BME280;9520;50.954;6.968;2023-04-10T01:50:05;101551.06;;;15.44;37.55
18784;BME280;9520;50.954;6.968;2023-04-10T01:50:28;101550.28;;;15.39;37.45
18784;BME280;9520;50.954;6.968;2023-04-10T01:50:53;101544.13;;;15.37;37.55
18784;BME280;9520;50.954;6.968;2023-04-10T01:51:16;101544.09;;;15.38;37.60
18784;BME280;9520;50.954;6.968;2023-04-10T01:51:38;101551.13;;;15.41;37.65
18784;BME280;9520;50.954;6.968;2023-04-10T01:52:04;101551.09;;;15.42;37.49
18784;BME280;9520;50.954;6.968;2023-04-10T01:52:29;101547.59;;;15.40;37.53
18784;BME280;9520;50.954;6.968;2023-04-10T01:53:10;101551.09;;;15.42;37.72
18784;BME280;9520;50.954;6.968;2023-04-10T01:53:33;101549.25;;;15.46;37.81
18784;BME280;9520;50.954;6.968;2023-04-10T01:53:58;101547.38;;;15.49;37.96
18784;BME280;9520;50.954;6.968;2023-04-10T01:54:21;101543.81;;;15.50;37.83
18784;BME280;9520;50.954;6.968;2023-04-10T01:54:43;101550.91;;;15.53;37.71
18784;BME280;9520;50.954;6.968;2023-04-10T01:55:14;101551.72;;;15.57;37.55
18784;BME280;9520;50.954;6.968;2023-04-10T01:55:40;101552.56;;;15.59;37.37
18784;BME280;9520;50.954;6.968;2023-04-10T01:56:04;101548.25;;;15.50;37.45
18784;BME280;9520;50.954;6.968;2023-04-10T01:56:34;101544.03;;;15.41;37.47
18784;BME280;9520;50.954;6.968;2023-04-10T01:56:58;101544.03;;;15.40;37.55
18784;BME280;9520;50.954;6.968;2023-04-10T01:57:21;101545.91;;;15.35;37.62
18784;BME280;9520;50.954;6.968;2023-04-10T01:57:47;101537.94;;;15.36;37.56
18784;BME280;9520;50.954;6.968;2023-04-10T01:58:10;101537.06;;;15.34;37.69
18784;BME280;9520;50.954;6.968;2023-04-10T01:58:33;101539.72;;;15.36;37.77
18784;BME280;9520;50.954;6.968;2023-04-10T01:58:55;101544.13;;;15.35;37.72
18784;BME280;9520;50.954;6.968;2023-04-10T01:59:19;101544.13;;;15.35;37.83
18784;BME280;9520;50.954;6.968;2023-04-10T01:59:41;101541.47;;;15.37;37.81
18784;BME280;9520;50.954;6.968;2023-04-10T02:00:03;101542.31;;;15.39;37.93
18784;BME280;9520;50.954;6.968;2023-04-10T02:00:38;101538.72;;;15.40;37.68
18784;BME280;9520;50.954;6.968;2023-04-10T02:01:00;101539.66;;;15.39;37.79
18784;BME280;9520;50.954;6.968;2023-04-10T02:01:23;101536.06;;;15.40;37.74
18784;BME280;9520;50.954;6.968;2023-04-10T02:01:55;101535.16;;;15.42;37.77
18784;BME280;9520;50.954;6.968;2023-04-10T02:02:18;101532.47;;;15.44;37.94
18784;BME280;9520;50.954;6.968;2023-04-10T02:02:40;101535.03;;;15.48;37.72
18784;BME280;9520;50.954;6.968;2023-04-10T02:03:03;101529.72;;;15.48;37.86
18784;BME280;9520;50.954;6.968;2023-04-10T02:03:26;101537.69;;;15.47;37.80
18784;BME280;9520;50.954;6.968;2023-04-10T02:03:48;101537.69;;;15.47;37.67
18784;BME280;9520;50.954;6.968;2023-04-10T02:04:11;101534.16;;;15.48;37.92
18784;BME280;9520;50.954;6.968;2023-04-10T02:04:32;101534.16;;;15.46;37.86
18784;BME280;9520;50.954;6.968;2023-04-10T02:04:54;101533.31;;;15.44;37.87
18784;BME280;9520;50.954;6.968;2023-04-10T02:05:18;101532.38;;;15.48;37.82
18784;BME280;9520;50.954;6.968;2023-04-10T02:06:02;101521.81;;;15.44;37.61
18784;BME280;9520;50.954;6.968;2023-04-10T02:06:32;101522.66;;;15.46;37.68
18784;BME280;9520;50.954;6.968;2023-04-10T02:07:02;101532.38;;;15.47;37.75
18784;BME280;9520;50.954;6.968;2023-04-10T02:07:29;101536.81;;;15.46;37.69
18784;BME280;9520;50.954;6.968;2023-04-10T02:07:56;101531.44;;;15.49;37.61
18784;BME280;9520;50.954;6.968;2023-04-10T02:08:27;101528.78;;;15.49;37.78
18784;BME280;9520;50.954;6.968;2023-04-10T02:08:53;101519.97;;;15.47;37.75
18784;BME280;9520;50.954;6.968;2023-04-10T02:09:22;101512.09;;;15.43;37.74
18784;BME280;9520;50.954;6.968;2023-04-10T02:09:51;101521.72;;;15.48;37.71
18784;BME280;9520;50.954;6.968;2023-04-10T02:10:20;101525.13;;;15.57;37.64
18784;BME280;9520;50.954;6.968;2023-04-10T02:10:49;101524.25;;;15.54;37.71
18784;BME280;9520;50.954;6.968;2023-04-10T02:11:16;101525.13;;;15.57;37.66
18784;BME280;9520;50.954;6.968;2023-04-10T02:11:46;101529.59;;;15.54;37.59